Time;durP1;ratioP1;P1;durP2;ratioP2;P2;SDS_P1;SDS_P2;PMS_P1;PMS_P2;Temp;Humidity;BMP_temperature;BMP_pressure;BME280_temperature;BME280_humidity;BME280_pressure;Samples;Min_cycle;Max_cycle;Signal;HPM_P1;HPM_P2
2024/01/18 00:02:07;;;;;;;3.57;3.23;;;15.90;51.70;16.80;98385.00;;;;5051429;28;20179;-46
2024/01/18 00:04:33;;;;;;;5.10;3.27;;;15.90;51.60;16.80;98383.00;;;;5072763;28;20179;-45
2024/01/18 00:06:58;;;;;;;5.20;3.30;;;15.80;51.60;16.80;98386.00;;;;5067912;28;20204;-45
2024/01/18 00:09:24;;;;;;;3.87;3.33;;;15.80;51.70;16.80;98393.00;;;;5069368;28;20231;-45
2024/01/18 00:11:50;;;;;;;4.83;3.17;;;15.80;51.80;16.70;98383.00;;;;5069135;28;20182;-45
2024/01/18 00:14:16;;;;;;;4.20;3.20;;;15.80;51.80;16.70;98378.00;;;;5069240;28;20191;-46
2024/01/18 00:16:41;;;;;;;5.40;3.30;;;15.80;52.00;16.70;98379.00;;;;5069281;28;20202;-46
2024/01/18 00:19:07;;;;;;;3.50;3.20;;;15.70;52.00;16.70;98387.00;;;;5070361;28;20166;-45
2024/01/18 00:21:33;;;;;;;3.80;3.40;;;15.70;52.10;16.70;98389.00;;;;5068943;28;20178;-45
2024/01/18 00:23:59;;;;;;;3.70;3.17;;;15.70;52.10;16.60;98389.00;;;;5069260;28;20166;-44
2024/01/18 00:26:24;;;;;;;3.70;3.40;;;15.70;52.20;16.60;98391.00;;;;5069142;28;20261;-45
2024/01/18 00:28:50;;;;;;;3.20;2.87;;;15.70;52.20;16.60;98402.00;;;;5070027;28;20187;-45
2024/01/18 00:31:16;;;;;;;3.50;3.20;;;15.60;52.20;16.60;98400.00;;;;5068686;28;20523;-45
2024/01/18 00:33:41;;;;;;;3.20;2.90;;;15.60;52.20;16.50;98412.00;;;;5069126;28;20317;-45
2024/01/18 00:36:07;;;;;;;3.30;3.00;;;15.60;52.40;16.50;98418.00;;;;5068706;28;20263;-45
2024/01/18 00:38:33;;;;;;;3.57;3.27;;;15.50;52.30;16.50;98427.00;;;;5068616;28;20183;-46
2024/01/18 00:40:58;;;;;;;3.37;3.07;;;15.60;52.40;16.50;98432.00;;;;5067542;28;20231;-46
2024/01/18 00:43:24;;;;;;;3.67;3.20;;;15.60;52.50;16.50;98443.00;;;;5064994;28;20241;-45
2024/01/18 00:45:50;;;;;;;3.33;3.00;;;15.50;52.60;16.50;98444.00;;;;5068675;28;20202;-47
2024/01/18 00:48:16;;;;;;;3.30;3.00;;;15.50;52.80;16.50;98440.00;;;;5068077;28;20210;-45
2024/01/18 00:50:41;;;;;;;3.13;2.90;;;15.40;53.60;16.50;98435.00;;;;5068326;28;20558;-45
2024/01/18 00:53:07;;;;;;;2.63;2.43;;;15.40;53.00;16.50;98432.00;;;;5068635;28;20385;-45
2024/01/18 00:55:33;;;;;;;3.33;3.03;;;15.40;53.00;16.40;98447.00;;;;5071934;28;20206;-46
2024/01/18 00:58:00;;;;;;;3.87;3.07;;;15.30;53.00;16.40;98429.00;;;;5068460;28;20650;-46
2024/01/18 01:00:27;;;;;;;3.37;3.07;;;15.30;53.10;16.40;98443.00;;;;5074495;28;20315;-47
2024/01/18 01:02:53;;;;;;;3.10;2.80;;;15.30;53.20;16.40;98445.00;;;;5072593;28;20635;-46
2024/01/18 01:05:18;;;;;;;3.40;3.10;;;15.30;53.30;16.40;98466.00;;;;5044590;28;20224;-45
2024/01/18 01:07:44;;;;;;;3.23;2.97;;;15.30;53.40;16.40;98473.00;;;;5065574;28;20194;-46
2024/01/18 01:10:10;;;;;;;3.50;3.20;;;15.30;53.40;16.40;98477.00;;;;5050133;28;20179;-46
2024/01/18 01:12:36;;;;;;;3.17;2.87;;;15.30;53.50;16.40;98477.00;;;;5066369;28;20553;-46
2024/01/18 01:15:01;;;;;;;3.37;3.07;;;15.20;53.70;16.30;98476.00;;;;5066989;28;20219;-46
2024/01/18 01:17:27;;;;;;;3.73;2.80;;;15.20;53.80;16.30;98467.00;;;;5066826;28;20197;-46
2024/01/18 01:19:53;;;;;;;3.00;2.80;;;15.20;53.90;16.30;98464.00;;;;5066980;28;20173;-45
2024/01/18 01:22:19;;;;;;;2.80;2.60;;;15.20;53.90;16.30;98471.00;;;;5033944;28;20617;-46
2024/01/18 01:24:44;;;;;;;3.13;2.83;;;15.20;53.70;16.30;98478.00;;;;5067092;28;20239;-45
2024/01/18 01:27:10;;;;;;;3.60;2.87;;;15.20;53.70;16.30;98475.00;;;;5066536;28;20262;-45
2024/01/18 01:29:36;;;;;;;3.07;2.87;;;15.20;53.60;16.30;98475.00;;;;5066601;28;20177;-45
2024/01/18 01:32:02;;;;;;;3.10;2.80;;;15.30;53.70;16.30;98475.00;;;;5066414;28;20189;-45
2024/01/18 01:34:28;;;;;;;3.20;2.90;;;15.30;53.50;16.20;98479.00;;;;5066464;28;20672;-45
2024/01/18 01:36:53;;;;;;;3.30;3.00;;;15.30;53.50;16.20;98486.00;;;;5041267;28;20205;-45
2024/01/18 01:39:19;;;;;;;3.57;2.93;;;15.30;53.50;16.20;98490.00;;;;5066955;28;20360;-45
2024/01/18 01:41:45;;;;;;;3.07;2.87;;;15.20;53.40;16.20;98505.00;;;;5068854;28;20174;-45
2024/01/18 01:44:11;;;;;;;3.20;2.80;;;15.20;53.40;16.20;98492.00;;;;5067558;28;20182;-45
2024/01/18 01:46:37;;;;;;;3.50;3.20;;;15.20;53.50;16.20;98499.00;;;;5090127;28;20634;-52
2024/01/18 01:49:05;;;;;;;3.30;3.00;;;15.20;53.60;16.20;98494.00;;;;5068874;28;20209;-45
2024/01/18 01:51:49;;;;;;;3.40;3.10;;;15.20;53.60;16.20;98500.00;;;;5029565;28;20289;-45
2024/01/18 01:54:18;;;;;;;3.30;3.00;;;15.20;53.70;16.20;98501.00;;;;5047322;28;20196;-46
2024/01/18 01:56:45;;;;;;;3.00;2.80;;;15.20;53.70;16.10;98500.00;;;;5063734;28;20685;-46
2024/01/18 01:59:12;;;;;;;3.23;2.93;;;15.10;53.60;16.10;98502.00;;;;5041428;28;20173;-45
2024/01/18 02:01:38;;;;;;;3.10;2.80;;;15.20;53.60;16.10;98494.00;;;;5066181;28;20170;-46
2024/01/18 02:04:03;;;;;;;3.47;3.17;;;15.20;53.50;16.10;98507.00;;;;5040855;28;20181;-45
2024/01/18 02:06:30;;;;;;;3.03;2.83;;;15.10;53.50;16.10;98515.00;;;;5066157;28;20202;-46
2024/01/18 02:08:55;;;;;;;3.37;3.07;;;15.10;53.50;16.10;98511.00;;;;5066126;28;20173;-46
2024/01/18 02:11:21;;;;;;;3.27;3.00;;;15.10;53.40;16.10;98516.00;;;;5038216;28;20564;-46
2024/01/18 02:13:48;;;;;;;2.97;2.77;;;15.10;53.50;16.10;98517.00;;;;5040008;28;20235;-46
2024/01/18 02:16:14;;;;;;;3.47;3.17;;;15.10;53.60;16.10;98514.00;;;;5063283;28;20202;-45
2024/01/18 02:18:39;;;;;;;3.10;2.90;;;15.10;53.60;16.10;98514.00;;;;5066192;28;20180;-45
2024/01/18 02:21:08;;;;;;;3.10;2.90;;;15.00;53.50;16.00;98522.00;;;;5066598;28;20201;-46
2024/01/18 02:23:33;;;;;;;3.10;2.90;;;15.10;53.60;16.00;98527.00;;;;5039855;28;20237;-46
2024/01/18 02:25:59;;;;;;;3.27;2.97;;;15.00;53.50;16.00;98512.00;;;;5043452;28;20251;-45
2024/01/18 02:28:25;;;;;;;3.30;3.00;;;15.00;53.50;16.00;98518.00;;;;5038352;28;20261;-46
2024/01/18 02:30:51;;;;;;;3.30;3.00;;;15.00;54.10;16.00;98517.00;;;;5065871;28;20184;-46
2024/01/18 02:33:16;;;;;;;3.17;2.87;;;15.00;53.50;16.00;98511.00;;;;5038919;28;20253;-46
2024/01/18 02:35:42;;;;;;;3.30;3.00;;;15.00;53.50;16.00;98523.00;;;;5065694;28;20642;-46
2024/01/18 02:38:08;;;;;;;3.10;2.90;;;15.00;53.50;16.00;98517.00;;;;5040361;28;20185;-46
2024/01/18 02:40:33;;;;;;;3.30;3.00;;;15.00;53.60;16.00;98514.00;;;;5065481;28;20181;-46
2024/01/18 02:42:59;;;;;;;3.03;2.83;;;15.00;53.50;16.00;98518.00;;;;5038855;28;20174;-46
2024/01/18 02:45:25;;;;;;;3.43;3.10;;;15.00;53.50;15.90;98512.00;;;;5071505;28;20700;-46
2024/01/18 02:47:51;;;;;;;3.10;2.90;;;14.90;54.00;15.90;98517.00;;;;5040298;28;20174;-45
2024/01/18 02:50:16;;;;;;;3.23;3.00;;;14.90;53.90;15.70;98508.00;;;;5065504;28;20693;-45
2024/01/18 02:52:42;;;;;;;3.00;2.80;;;15.00;53.90;15.90;98512.00;;;;5040408;28;20257;-46
2024/01/18 02:55:08;;;;;;;3.33;3.03;;;14.90;53.60;15.90;98517.00;;;;5065736;28;21573;-46
2024/01/18 02:57:34;;;;;;;3.30;3.00;;;14.90;53.60;15.90;98518.00;;;;5065607;28;20202;-46
2024/01/18 02:59:59;;;;;;;3.40;3.10;;;14.90;53.60;15.90;98517.00;;;;5065779;28;20834;-46
2024/01/18 03:02:25;;;;;;;3.33;3.03;;;14.90;53.60;15.80;98521.00;;;;5065460;28;20192;-46
2024/01/18 03:04:51;;;;;;;2.90;2.70;;;14.80;53.60;15.80;98525.00;;;;5065185;28;20206;-45
2024/01/18 03:07:16;;;;;;;3.40;3.10;;;14.80;53.50;15.80;98514.00;;;;5061558;28;20197;-44
2024/01/18 03:09:42;;;;;;;3.40;3.10;;;14.80;53.60;15.60;98518.00;;;;5065739;28;20189;-45
2024/01/18 03:12:08;;;;;;;3.20;3.00;;;14.80;53.50;15.80;98524.00;;;;5065502;28;20185;-45
2024/01/18 03:14:34;;;;;;;3.10;2.90;;;14.80;53.60;15.80;98528.00;;;;5067958;28;20637;-52
2024/01/18 03:16:59;;;;;;;3.07;2.87;;;14.80;53.60;15.80;98525.00;;;;5070609;28;20209;-46
2024/01/18 03:19:25;;;;;;;3.30;3.00;;;14.80;53.60;15.70;98534.00;;;;5066215;28;20212;-44
2024/01/18 03:21:51;;;;;;;3.33;3.00;;;14.80;53.50;15.70;98540.00;;;;5069609;28;20188;-46
2024/01/18 03:24:17;;;;;;;3.13;2.93;;;14.80;53.60;15.70;98539.00;;;;5062985;28;20185;-45
2024/01/18 03:26:42;;;;;;;3.47;3.17;;;14.80;53.60;15.70;98541.00;;;;5069182;28;20802;-45
2024/01/18 03:29:09;;;;;;;2.90;2.70;;;14.70;53.60;15.70;98548.00;;;;5069178;28;20967;-45
2024/01/18 03:31:35;;;;;;;3.20;2.93;;;14.70;53.70;15.70;98536.00;;;;5069027;28;20177;-45
2024/01/18 03:34:01;;;;;;;2.90;2.70;;;14.70;53.70;15.70;98541.00;;;;5069239;28;20255;-45
2024/01/18 03:36:26;;;;;;;2.90;2.70;;;14.70;53.70;15.70;98543.00;;;;5070206;28;20943;-45
2024/01/18 03:38:52;;;;;;;2.80;2.60;;;14.70;53.70;15.70;98540.00;;;;5068806;28;20170;-45
2024/01/18 03:41:18;;;;;;;3.10;2.90;;;14.60;53.80;15.60;98531.00;;;;5068512;28;20660;-45
2024/01/18 03:43:43;;;;;;;3.00;2.80;;;14.70;54.00;15.60;98545.00;;;;5065058;28;20268;-45
2024/01/18 03:46:15;;;;;;;3.23;3.03;;;14.60;54.00;15.60;98541.00;;;;5069366;28;20296;-49
2024/01/18 03:48:41;;;;;;;3.23;2.93;;;14.60;54.00;15.60;98552.00;;;;5072832;28;20178;-45
2024/01/18 03:51:07;;;;;;;3.10;2.90;;;14.60;54.10;15.60;98535.00;;;;5068568;28;20260;-45
2024/01/18 03:53:33;;;;;;;3.50;3.20;;;14.60;54.10;15.50;98541.00;;;;5047413;28;20591;-46
2024/01/18 03:55:59;;;;;;;3.40;3.10;;;14.60;54.00;15.60;98545.00;;;;5045392;28;20632;-45
2024/01/18 03:58:25;;;;;;;3.13;2.93;;;14.60;54.10;15.50;98539.00;;;;5068355;28;20173;-45
2024/01/18 04:00:51;;;;;;;2.97;2.60;;;14.60;54.10;15.50;98550.00;;;;5068507;28;20238;-45
2024/01/18 04:03:17;;;;;;;3.30;3.00;;;14.60;54.10;15.50;98539.00;;;;5070259;28;20178;-45
2024/01/18 04:05:43;;;;;;;3.17;2.97;;;14.50;54.10;15.50;98545.00;;;;5069812;28;20217;-45
2024/01/18 04:08:09;;;;;;;3.00;2.80;;;14.60;54.10;15.50;98545.00;;;;5046975;28;20234;-45
2024/01/18 04:10:35;;;;;;;3.30;3.00;;;14.50;54.10;15.50;98546.00;;;;5070301;28;20181;-45
2024/01/18 04:13:02;;;;;;;2.97;2.77;;;14.50;54.10;15.50;98558.00;;;;5069565;28;20173;-45
2024/01/18 04:15:28;;;;;;;3.30;3.00;;;14.50;54.10;15.50;98548.00;;;;5068941;28;20194;-46
2024/01/18 04:17:54;;;;;;;3.00;2.80;;;14.50;54.10;15.50;98551.00;;;;5073125;28;20193;-45
2024/01/18 04:20:23;;;;;;;3.53;3.23;;;14.50;54.10;15.50;98550.00;;;;5069651;28;20189;-45
2024/01/18 04:22:48;;;;;;;3.20;2.93;;;14.50;54.10;15.40;98560.00;;;;5069376;28;20162;-45
2024/01/18 04:25:14;;;;;;;3.20;3.00;;;14.50;54.10;15.40;98561.00;;;;5040993;28;20559;-44
2024/01/18 04:27:40;;;;;;;3.63;2.83;;;14.50;54.20;15.40;98561.00;;;;5034574;28;20177;-45
2024/01/18 04:30:08;;;;;;;3.20;2.90;;;14.40;55.70;15.40;98566.00;;;;5068596;28;20181;-45
2024/01/18 04:32:33;;;;;;;4.20;3.20;;;14.40;54.80;15.40;98570.00;;;;5068830;28;20260;-45
2024/01/18 04:34:59;;;;;;;3.23;2.93;;;14.50;54.50;15.40;98575.00;;;;5068923;28;20515;-45
2024/01/18 04:37:25;;;;;;;3.40;3.10;;;14.50;54.50;15.30;98574.00;;;;5068127;28;20694;-46
2024/01/18 04:39:50;;;;;;;5.43;3.07;;;14.40;54.80;15.30;98584.00;;;;5068815;28;20173;-46
2024/01/18 04:42:16;;;;;;;5.47;3.00;;;14.40;54.90;15.30;98599.00;;;;5042095;28;20174;-45
2024/01/18 04:44:42;;;;;;;3.53;3.20;;;14.40;55.00;15.30;98595.00;;;;5070710;28;20752;-44
2024/01/18 04:47:08;;;;;;;4.67;3.53;;;14.40;55.10;15.30;98604.00;;;;5068301;28;20721;-45
2024/01/18 04:49:34;;;;;;;3.90;3.60;;;14.40;55.30;15.30;98605.00;;;;5042020;28;20180;-45
2024/01/18 04:52:00;;;;;;;4.27;3.70;;;14.30;55.10;15.30;98615.00;;;;5042893;28;20174;-48
2024/01/18 04:54:25;;;;;;;4.30;3.90;;;14.30;55.10;15.30;98620.00;;;;5047993;28;20728;-45
2024/01/18 04:56:51;;;;;;;4.40;3.87;;;14.30;55.00;15.30;98629.00;;;;5063950;28;20292;-45
2024/01/18 04:59:17;;;;;;;4.50;4.10;;;14.30;54.90;15.20;98619.00;;;;5067836;28;20181;-45
2024/01/18 05:01:43;;;;;;;4.63;4.23;;;14.20;54.80;15.20;98632.00;;;;5042025;28;20170;-45
2024/01/18 05:04:09;;;;;;;5.10;4.60;;;14.20;54.70;15.20;98620.00;;;;5067788;28;20269;-45
2024/01/18 05:06:35;;;;;;;5.17;4.67;;;14.20;54.60;15.20;98604.00;;;;5067671;28;20276;-45
2024/01/18 05:09:01;;;;;;;5.03;4.50;;;14.10;54.40;15.20;98624.00;;;;5041803;28;20401;-45
2024/01/18 05:11:27;;;;;;;5.60;5.10;;;14.10;54.30;15.20;98622.00;;;;5067796;28;20251;-45
2024/01/18 05:13:53;;;;;;;5.17;4.67;;;14.10;54.20;15.10;98616.00;;;;5068239;28;20583;-45
2024/01/18 05:16:19;;;;;;;5.60;5.10;;;14.10;54.00;15.10;98600.00;;;;5067431;28;20209;-45
2024/01/18 05:18:45;;;;;;;5.73;5.10;;;14.10;54.00;15.10;98624.00;;;;5046407;28;20189;-46
2024/01/18 05:21:10;;;;;;;5.70;5.20;;;14.00;53.90;15.10;98621.00;;;;5046328;28;20617;-45
2024/01/18 05:23:36;;;;;;;6.03;5.23;;;14.00;53.90;15.10;98636.00;;;;5048637;28;20174;-46
2024/01/18 05:26:04;;;;;;;5.80;5.23;;;14.00;53.90;15.10;98636.00;;;;5068536;28;20229;-46
2024/01/18 05:28:29;;;;;;;6.00;5.40;;;14.00;53.70;15.10;98646.00;;;;5051155;28;20174;-47
2024/01/18 05:30:56;;;;;;;6.10;5.50;;;14.00;53.70;15.00;98646.00;;;;5070345;28;20180;-46
2024/01/18 05:33:22;;;;;;;5.60;5.10;;;13.90;53.60;15.00;98643.00;;;;5068386;28;20744;-46
2024/01/18 05:35:48;;;;;;;5.80;5.30;;;14.00;53.60;15.00;98622.00;;;;5067063;28;20258;-45
2024/01/18 05:38:14;;;;;;;5.50;5.00;;;14.00;53.60;15.00;98654.00;;;;5063926;28;20212;-45
2024/01/18 05:40:39;;;;;;;5.53;5.03;;;14.00;53.60;15.00;98666.00;;;;5070259;28;20223;-45
2024/01/18 05:43:05;;;;;;;5.77;5.27;;;14.00;53.50;15.00;98671.00;;;;5068619;28;20182;-46
2024/01/18 05:45:31;;;;;;;5.20;4.70;;;14.10;53.70;15.00;98675.00;;;;5065763;28;20193;-45
2024/01/18 05:47:57;;;;;;;5.80;4.57;;;14.00;53.90;15.00;98671.00;;;;5067152;28;20776;-45
2024/01/18 05:50:23;;;;;;;6.20;4.60;;;14.10;54.00;15.00;98669.00;;;;5066622;28;20274;-45
2024/01/18 05:52:48;;;;;;;5.37;4.53;;;14.20;54.10;15.00;98672.00;;;;5041374;28;20649;-45
2024/01/18 05:55:15;;;;;;;4.97;4.47;;;14.20;54.10;15.10;98679.00;;;;5063194;28;20308;-44
2024/01/18 05:57:41;;;;;;;5.13;4.33;;;14.30;54.20;15.10;98678.00;;;;5066198;28;20220;-45
2024/01/18 06:00:08;;;;;;;4.77;4.37;;;14.40;54.20;15.20;98684.00;;;;5066922;28;20783;-44
2024/01/18 06:02:33;;;;;;;5.70;4.20;;;14.40;54.20;15.20;98671.00;;;;5066760;28;20173;-52
2024/01/18 06:05:00;;;;;;;5.80;4.13;;;14.50;54.30;15.20;98682.00;;;;5066356;28;20204;-44
2024/01/18 06:07:26;;;;;;;6.77;4.23;;;14.60;54.40;15.30;98677.00;;;;5066747;28;20869;-44
2024/01/18 06:09:52;;;;;;;6.37;4.20;;;14.60;54.40;15.40;98669.00;;;;5067066;28;20174;-44
2024/01/18 06:12:17;;;;;;;5.97;4.20;;;14.80;54.60;15.40;98679.00;;;;5066869;28;20237;-45
2024/01/18 06:14:43;;;;;;;8.13;4.37;;;14.80;54.80;15.50;98680.00;;;;5066811;28;20597;-46
2024/01/18 06:17:09;;;;;;;12.63;4.50;;;14.90;54.60;15.60;98682.00;;;;5066938;28;20217;-45
2024/01/18 06:19:35;;;;;;;7.27;4.10;;;15.10;54.80;15.70;98678.00;;;;5067030;28;20235;-45
2024/01/18 06:22:00;;;;;;;10.33;4.30;;;15.20;54.60;15.80;98699.00;;;;5067073;28;20265;-45
2024/01/18 06:24:28;;;;;;;9.67;4.23;;;15.30;54.40;15.90;98716.00;;;;5066389;28;20181;-45
2024/01/18 06:26:55;;;;;;;6.60;4.10;;;15.50;54.40;16.00;98710.00;;;;5066757;28;20232;-46
2024/01/18 06:29:26;;;;;;;9.00;4.20;;;15.60;54.10;16.10;98717.00;;;;5067035;28;20190;-46
2024/01/18 06:31:52;;;;;;;6.87;3.80;;;15.70;54.00;16.20;98719.00;;;;5066584;28;20180;-46
2024/01/18 06:34:18;;;;;;;6.53;3.70;;;15.80;53.90;16.20;98729.00;;;;5066232;28;20185;-45
2024/01/18 06:36:44;;;;;;;7.37;4.03;;;15.90;53.80;16.30;98733.00;;;;5066481;28;20243;-46
2024/01/18 06:39:10;;;;;;;6.03;4.00;;;16.00;53.90;16.40;98734.00;;;;5066514;28;20673;-46
2024/01/18 06:41:36;;;;;;;6.60;3.70;;;16.00;53.70;16.50;98747.00;;;;5066355;28;20557;-45
2024/01/18 06:44:02;;;;;;;6.93;3.60;;;16.00;53.70;16.50;98743.00;;;;5062479;28;20173;-45
2024/01/18 06:46:28;;;;;;;7.37;3.50;;;16.10;53.80;16.50;98754.00;;;;5043647;28;20292;-46
2024/01/18 06:48:55;;;;;;;8.93;3.83;;;16.10;53.80;16.60;98762.00;;;;5066564;28;20186;-45
2024/01/18 06:51:21;;;;;;;6.27;3.57;;;16.20;53.80;16.60;98761.00;;;;5066259;28;20178;-46
2024/01/18 06:53:46;;;;;;;4.27;3.50;;;16.20;53.80;16.70;98758.00;;;;5041192;28;20174;-46
2024/01/18 06:56:13;;;;;;;5.23;3.40;;;16.20;53.80;16.70;98766.00;;;;5043128;28;20344;-46
2024/01/18 06:58:39;;;;;;;5.33;3.77;;;16.20;53.90;16.70;98762.00;;;;5066216;28;20179;-46
2024/01/18 07:01:06;;;;;;;6.70;3.70;;;16.20;53.80;16.80;98748.00;;;;5070011;28;20292;-46
2024/01/18 07:03:31;;;;;;;3.83;3.43;;;16.20;53.80;16.80;98756.00;;;;5070389;28;20187;-46
2024/01/18 07:05:57;;;;;;;4.93;3.40;;;16.20;53.90;16.80;98764.00;;;;5070001;28;20200;-46
2024/01/18 07:08:24;;;;;;;3.97;3.30;;;16.20;53.90;16.80;98754.00;;;;5069365;28;20209;-46
2024/01/18 07:10:50;;;;;;;4.40;3.60;;;16.30;54.00;16.80;98756.00;;;;5070075;28;20181;-46
2024/01/18 07:13:15;;;;;;;5.53;3.20;;;16.30;54.00;16.90;98768.00;;;;5069897;28;20646;-46
2024/01/18 07:15:41;;;;;;;4.13;3.73;;;16.30;54.50;16.90;98784.00;;;;5069267;28;20201;-46
2024/01/18 07:18:07;;;;;;;4.50;3.80;;;16.30;53.90;16.90;98781.00;;;;5070061;28;20178;-46
2024/01/18 07:20:33;;;;;;;4.40;3.60;;;16.30;54.00;16.90;98779.00;;;;5075299;28;20176;-46
2024/01/18 07:22:58;;;;;;;4.43;3.40;;;16.30;54.10;16.90;98782.00;;;;5049415;28;20170;-46
2024/01/18 07:25:24;;;;;;;5.20;3.63;;;16.30;54.10;16.90;98774.00;;;;5069789;28;20678;-45
2024/01/18 07:27:50;;;;;;;3.73;3.40;;;16.30;54.00;16.90;98777.00;;;;5070034;28;20549;-46
2024/01/18 07:30:16;;;;;;;4.10;3.70;;;16.30;54.00;17.00;98759.00;;;;5069772;28;20189;-45
2024/01/18 07:32:44;;;;;;;4.63;3.20;;;16.30;54.10;16.90;98781.00;;;;5069952;28;20695;-46
2024/01/18 07:35:10;;;;;;;3.90;3.50;;;16.30;54.10;16.90;98703.00;;;;5067798;28;20806;-46
2024/01/18 07:37:36;;;;;;;3.50;3.20;;;16.30;54.20;16.90;98773.00;;;;5050421;28;20209;-45
2024/01/18 07:40:02;;;;;;;3.43;3.10;;;16.30;54.20;16.90;98782.00;;;;5069366;28;20645;-45
2024/01/18 07:42:28;;;;;;;4.33;3.20;;;16.20;54.30;16.90;98784.00;;;;5069268;28;20174;-45
2024/01/18 07:44:53;;;;;;;3.57;3.13;;;16.30;54.40;16.90;98775.00;;;;5065940;28;20217;-45
2024/01/18 07:47:20;;;;;;;3.87;3.23;;;16.30;54.30;16.90;98788.00;;;;5069511;28;20189;-44
2024/01/18 07:49:46;;;;;;;4.20;3.17;;;16.30;54.30;17.00;98785.00;;;;5065544;28;20606;-46
2024/01/18 07:52:15;;;;;;;3.87;3.47;;;16.30;54.20;17.00;98784.00;;;;5069080;28;20192;-45
2024/01/18 07:54:41;;;;;;;5.03;3.67;;;16.30;54.30;17.00;98798.00;;;;5045776;28;20177;-45
2024/01/18 07:57:06;;;;;;;3.60;3.30;;;16.30;54.30;17.00;98793.00;;;;5073624;28;20202;-45
2024/01/18 07:59:32;;;;;;;3.77;3.17;;;16.30;54.30;17.00;98804.00;;;;5052058;28;20179;-46
2024/01/18 08:01:59;;;;;;;3.97;3.57;;;16.30;54.20;17.00;98825.00;;;;5070115;28;20169;-45
2024/01/18 08:04:25;;;;;;;3.60;3.10;;;16.30;54.20;17.00;98826.00;;;;5068824;28;20179;-45
2024/01/18 08:06:51;;;;;;;4.60;3.40;;;16.30;54.20;17.00;98830.00;;;;5068840;28;20193;-46
2024/01/18 08:09:16;;;;;;;5.17;3.40;;;16.30;54.30;17.00;98831.00;;;;5047832;28;20196;-45
2024/01/18 08:11:42;;;;;;;3.43;3.13;;;16.40;54.50;17.00;98829.00;;;;5062734;28;20171;-46
2024/01/18 08:15:23;;;;;;;3.73;3.10;;;16.40;54.60;17.10;98844.00;;;;5199691;23;21096;-46
2024/01/18 08:17:49;;;;;;;4.47;3.30;;;16.40;54.60;17.00;98840.00;;;;4963890;28;20248;-46
2024/01/18 08:20:14;;;;;;;4.00;3.40;;;16.40;54.70;17.00;98851.00;;;;4979818;28;20208;-45
2024/01/18 08:22:40;;;;;;;3.80;3.50;;;16.40;54.70;17.10;98861.00;;;;4993711;28;20592;-45
2024/01/18 08:25:07;;;;;;;4.37;3.40;;;16.40;54.80;17.10;98862.00;;;;4983663;28;20206;-46
2024/01/18 08:27:33;;;;;;;6.33;3.50;;;16.40;54.70;17.10;98864.00;;;;4973874;28;20195;-45
2024/01/18 08:29:59;;;;;;;6.00;3.30;;;16.40;54.60;17.10;98872.00;;;;4977642;28;20186;-45
2024/01/18 08:32:31;;;;;;;4.70;3.60;;;16.40;54.60;17.10;98867.00;;;;4983914;28;20890;-46
2024/01/18 08:34:58;;;;;;;3.70;3.40;;;16.40;54.60;17.10;98876.00;;;;4977023;28;20236;-46
2024/01/18 08:37:23;;;;;;;3.50;3.20;;;16.50;54.70;17.10;98890.00;;;;4987602;28;20210;-45
2024/01/18 08:39:50;;;;;;;3.53;3.10;;;16.50;54.60;17.10;98884.00;;;;4986362;28;20717;-45
2024/01/18 08:42:15;;;;;;;3.63;3.30;;;16.40;54.50;17.10;98828.00;;;;5008630;28;20654;-45
2024/01/18 08:44:45;;;;;;;3.50;3.20;;;16.50;54.60;17.10;98899.00;;;;4979502;28;20206;-45
2024/01/18 08:47:12;;;;;;;3.63;3.27;;;16.50;54.60;17.10;98895.00;;;;4969121;28;20186;-46
2024/01/18 08:49:38;;;;;;;3.90;3.13;;;16.50;54.80;17.20;98890.00;;;;4998409;28;20183;-44
2024/01/18 08:52:03;;;;;;;3.97;3.20;;;16.50;55.00;17.20;98904.00;;;;5002598;28;20184;-45
2024/01/18 08:54:30;;;;;;;5.57;3.17;;;16.50;54.90;17.20;98902.00;;;;5006754;28;20193;-46
2024/01/18 08:56:56;;;;;;;4.50;3.40;;;16.50;55.20;17.20;98903.00;;;;4989581;28;20224;-45
2024/01/18 08:59:23;;;;;;;3.73;3.40;;;16.60;55.50;17.20;98904.00;;;;4985285;28;20184;-46
2024/01/18 09:01:49;;;;;;;5.87;3.50;;;16.60;56.10;17.30;98927.00;;;;4978986;28;20184;-45
2024/01/18 09:04:16;;;;;;;5.97;3.47;;;16.60;56.70;17.30;98918.00;;;;4998462;28;20166;-45
2024/01/18 09:06:42;;;;;;;4.77;3.00;;;16.60;56.80;17.30;98918.00;;;;4986529;28;20178;-46
2024/01/18 09:09:11;;;;;;;4.33;3.43;;;16.60;57.20;17.30;98926.00;;;;4984190;28;20195;-46
2024/01/18 09:11:37;;;;;;;7.13;3.10;;;16.60;57.40;17.30;98927.00;;;;4985447;28;20183;-46
2024/01/18 09:14:03;;;;;;;6.13;3.33;;;16.60;57.60;17.30;98931.00;;;;4979424;28;20185;-45
2024/01/18 09:16:31;;;;;;;6.17;3.37;;;16.60;58.00;17.30;98951.00;;;;5000543;28;20196;-45
2024/01/18 09:18:57;;;;;;;6.33;3.30;;;16.60;57.80;17.30;98951.00;;;;4988453;28;20192;-45
2024/01/18 09:21:23;;;;;;;7.50;3.60;;;16.60;57.90;17.30;98955.00;;;;4983496;28;20185;-44
2024/01/18 09:23:48;;;;;;;6.03;3.30;;;16.60;58.50;17.40;98958.00;;;;4985826;28;20200;-44
2024/01/18 09:26:14;;;;;;;7.83;3.23;;;16.60;58.50;17.30;98960.00;;;;4980318;28;20709;-46
2024/01/18 09:28:40;;;;;;;5.13;3.13;;;16.60;58.50;17.20;98968.00;;;;4983238;28;20221;-45
2024/01/18 09:31:06;;;;;;;5.93;3.40;;;16.60;57.90;17.30;98971.00;;;;4975902;28;20185;-45
2024/01/18 09:33:32;;;;;;;4.83;3.13;;;16.60;57.80;17.30;98970.00;;;;4987842;28;20583;-45
2024/01/18 09:35:57;;;;;;;4.00;3.20;;;16.60;57.70;17.30;98984.00;;;;4986388;28;20209;-45
2024/01/18 09:38:25;;;;;;;5.30;3.40;;;16.60;57.50;17.30;98994.00;;;;4988918;28;20264;-45
2024/01/18 09:40:51;;;;;;;3.20;2.90;;;16.60;57.40;17.30;98989.00;;;;4983343;28;20739;-45
2024/01/18 09:43:17;;;;;;;3.43;3.13;;;16.60;57.30;17.30;98986.00;;;;4996042;28;20224;-46
2024/01/18 09:45:46;;;;;;;4.50;3.17;;;16.60;57.30;17.30;99018.00;;;;4990278;28;20317;-44
2024/01/18 09:48:12;;;;;;;8.20;3.27;;;16.60;57.50;17.30;99028.00;;;;4976970;28;20187;-45
2024/01/18 09:50:45;;;;;;;6.50;3.43;;;16.60;57.20;17.30;99015.00;;;;4983195;28;20190;-45
2024/01/18 09:53:12;;;;;;;5.80;3.27;;;16.60;57.20;17.40;99018.00;;;;4971753;28;20625;-45
2024/01/18 09:55:38;;;;;;;9.73;3.50;;;16.60;57.50;17.30;98988.00;;;;4983566;28;20234;-44
2024/01/18 09:58:03;;;;;;;4.20;3.40;;;16.60;57.90;17.30;99020.00;;;;4987695;28;20251;-46
2024/01/18 10:00:31;;;;;;;4.87;3.10;;;16.60;58.20;17.30;99030.00;;;;4994261;28;20419;-46
2024/01/18 10:02:57;;;;;;;5.70;3.10;;;16.60;57.80;17.30;99029.00;;;;5002078;28;20180;-45
2024/01/18 10:05:25;;;;;;;4.77;3.20;;;16.60;57.50;17.30;99024.00;;;;5000075;28;20221;-46
2024/01/18 10:07:51;;;;;;;7.57;3.20;;;16.60;57.30;17.30;99033.00;;;;5002919;28;20613;-46
2024/01/18 10:10:18;;;;;;;4.90;3.33;;;16.60;57.10;17.30;99034.00;;;;4998550;28;20194;-46
2024/01/18 10:12:44;;;;;;;5.93;3.30;;;16.60;56.90;17.30;99047.00;;;;4986940;28;20197;-45
2024/01/18 10:15:10;;;;;;;4.63;3.17;;;16.60;56.80;17.30;99050.00;;;;4995620;28;20213;-45
2024/01/18 10:17:37;;;;;;;3.40;3.10;;;16.60;56.70;17.30;99055.00;;;;4987460;28;20212;-46
2024/01/18 10:20:04;;;;;;;3.70;3.30;;;16.60;56.60;17.30;99059.00;;;;5000173;28;20241;-46
2024/01/18 10:22:30;;;;;;;4.30;3.50;;;16.60;56.50;17.30;99066.00;;;;4987949;28;20176;-45
2024/01/18 10:24:55;;;;;;;5.23;3.20;;;16.60;56.40;17.30;99083.00;;;;4982926;28;20214;-45
2024/01/18 10:27:25;;;;;;;4.50;3.30;;;16.60;56.40;17.30;99088.00;;;;4984535;28;20222;-46
2024/01/18 10:29:51;;;;;;;4.57;2.97;;;16.60;56.10;17.30;99096.00;;;;4974421;28;20679;-45
2024/01/18 10:32:17;;;;;;;3.57;3.00;;;16.60;56.10;17.40;99095.00;;;;4984910;28;20182;-47
2024/01/18 10:34:43;;;;;;;3.50;3.20;;;16.60;56.10;17.30;99099.00;;;;4988373;28;20225;-46
2024/01/18 10:37:12;;;;;;;3.70;3.40;;;16.60;56.00;17.40;99096.00;;;;4997781;28;20193;-46
2024/01/18 10:39:39;;;;;;;4.00;3.20;;;16.70;56.10;17.40;99094.00;;;;5003370;28;20673;-46
2024/01/18 10:42:12;;;;;;;3.50;3.20;;;16.70;56.10;17.40;99097.00;;;;4985980;28;20217;-46
2024/01/18 10:44:42;;;;;;;3.50;3.20;;;16.70;56.00;17.40;99101.00;;;;4996667;28;20188;-46
2024/01/18 10:47:14;;;;;;;3.70;3.30;;;16.60;56.00;17.40;99107.00;;;;4990098;28;20228;-44
2024/01/18 10:49:40;;;;;;;3.43;3.13;;;16.60;56.00;17.40;99116.00;;;;4988059;28;20556;-46
2024/01/18 10:52:07;;;;;;;3.30;3.00;;;16.60;56.00;17.40;99107.00;;;;5009823;28;20187;-45